CheckWX is a tool to help pilots better visualize weather data.  It is not intended as a substitute for an official pre-flight weather briefing.

07:28:25 UTC

19S METAR
Sublette Municipal Airport
Sublette, Kansas, USA
Current

33 mins ago

K19S 170655Z AUTO 20005KT 10SM CLR 17/15 A3000 RMK AO2 T01730150
Observed
Jun-17 @ 06:55 UTC
Wind
  • 200° at 5 KTS
Visibility
10 SM
Flight Rules
VFR
Cloud Levels
  • Clear skies
Temperature
17°C / 63°F
Dewpoint
15°C / 59°F
Humidity
88%
Altimeter
30" Hg
Pressure
1015.92 hPa
Previous

53 mins ago

K19S 170635Z AUTO 19004KT 10SM CLR 17/15 A3000 RMK AO2 T01710148
Observed
Jun-17 @ 06:35 UTC
Wind
  • 190° at 4 KTS
Visibility
10 SM
Flight Rules
VFR
Cloud Levels
  • Clear skies
Temperature
17°C / 63°F
Dewpoint
15°C / 59°F
Humidity
88%
Altimeter
30" Hg
Pressure
1015.92 hPa
Previous

1 hour ago

K19S 170615Z AUTO 18006KT 10SM CLR 18/15 A3000 RMK AO2 T01760150
Observed
Jun-17 @ 06:15 UTC
Wind
  • 180° at 6 KTS
Visibility
10 SM
Flight Rules
VFR
Cloud Levels
  • Clear skies
Temperature
18°C / 64°F
Dewpoint
15°C / 59°F
Humidity
83%
Altimeter
30" Hg
Pressure
1015.92 hPa